Odessa, TX

9:05 AM CDT on August 28, 2016 (GMT -0500)
Odessa-Schlemeyer | | Change Station

Elev 2999 ft 31.92 °N, 102.39 °W | Updated 12 minutes ago

Clear
Clear
72 °F
Feels Like 72 °F
N
7
Wind Variable Wind from Variable

Today
High -- | Low -- °F
--% Chance of Precip.
Yesterday
High -- | Low -- °F
Precip. -- in
Pressure 30.01 in
Visibility 10.0 miles
Clouds Clear
Dew Point 64 °F
Humidity 76%
Rainfall 0.00 in
Snow Depth Not available.
7:22 AM 8:17 PM
Waning Crescent, 15% visible
METAR KODO 281353Z AUTO VRB06KT 10SM CLR 22/18 A3014 RMK AO2 SLP161 T02220178
Pressure 30.01 in
Visibility 10.0 miles
Clouds Clear
Dew Point 64 °F
Humidity 76%
Rainfall 0.00 in
Snow Depth Not available.
7:22 AM 8:17 PM
Waning Crescent, 15% visible
METAR KODO 281353Z AUTO VRB06KT 10SM CLR 22/18 A3014 RMK AO2 SLP161 T02220178

10-Day Weather Forecast

Almanac

Astronomy

Aug. 28, 2016 Rise Set
Actual Time
Civil Twilight
Nautical Twilight
Astronomical Twilight
Moon
Length of Visible Light
Length of Day
Tomorrow will be .
, % of the Moon is Illuminated

Today's Extremes

State Highs State Lows

Community

WunderPhotos

Upload Photos

1,935,569 photos uploaded!

WunderBlog® & News

Nearby

Air Quality

  Air Quality AQ Index Pollutant
Not available.

Snow Depth

Station Depth Elevation

Earthquake Activity

City Distance Mag. Time & Date
Minimum magnitude displayed is 2.5.

Coastal Water Temperatures

Place Temperature

Stations

Nearby Weather Stations

Station Location Temp. Windchill Dew Point Humidity Wind Precip. Elev Updated Type
                   

Watches & Warnings

There are currently no watches in effect.